Beaufort Belle — WBC3029 — position and weather

sailwx.info

Track history (hours):
 
Tides and Currents Weather Stations Pressure Air Temp Water Temp Dewpoint Dewpoint Depression Visibility Wind Speed Wind Dir Waves Ship Positions

Beaufort Belle

Owner: PCS Phosphate, AURORA, NC. More information available from US FCC via Universal Licensing System and Coast Guard Vessel Documentation Center.

Last reported at 2018-Jul-19 16:49 UTC. Time now 2018-Jul-23 15:09 UTC.
Position N 34°56' W 076°39'.

Length 30 m; draft 3.5 m.

Type: Tug. MMSI: 367141430.

Date/timePositionNaut miles runAvg speedWind from/ knotsBaromVisibWave heightAir tempDewpointWater temp
2018-Jul-19 16:49N 34°56' W 076°39'3 6.5
2018-Jul-19 16:24N 34°54' W 076°41'2 6.2
2018-Jul-19 16:00N 34°51' W 076°41'3 6.3
2018-Jul-19 15:30N 34°48' W 076°41'3 6.9
2018-Jul-19 15:00N 34°45' W 076°41'2 3.3
2018-Jul-19 14:30N 34°43' W 076°42'3 2.6
2018-Jul-19 13:30N 34°46' W 076°41'3 6.3
2018-Jul-19 13:01N 34°49' W 076°41'4 7.0
2018-Jul-19 12:30N 34°52' W 076°42'3 6.2
2018-Jul-19 12:00N 34°55' W 076°40'3 5.9
2018-Jul-19 11:30N 34°58' W 076°41'3 5.8
2018-Jul-19 11:00N 35°01' W 076°40'4 7.1
2018-Jul-19 10:30N 35°03' W 076°36'3 6.8
2018-Jul-19 10:01N 35°04' W 076°33'3 6.8
2018-Jul-19 09:30N 35°07' W 076°31'15 0.7
2018-Jul-18 12:00N 34°54' W 076°40'2 4.7
2018-Jul-18 11:29N 34°52' W 076°41'5 5.3
2018-Jul-18 10:30N 34°47' W 076°41'3 5.1
2018-Jul-18 10:00N 34°44' W 076°41'1 2.0
2018-Jul-18 09:30N 34°43' W 076°42'0 0.0
2018-Jul-18 09:00N 34°43' W 076°42'0 0.1
2018-Jul-18 08:30N 34°43' W 076°42'1 1.0
2018-Jul-18 08:01N 34°44' W 076°41'3 5.9
2018-Jul-18 07:31N 34°47' W 076°41'3 5.2
2018-Jul-18 07:00N 34°49' W 076°41'2 4.3
2018-Jul-18 06:30N 34°52' W 076°41'2 4.0
2018-Jul-18 06:01N 34°53' W 076°41'2 3.9
2018-Jul-18 05:30N 34°55' W 076°40'3 4.9
2018-Jul-18 04:53N 34°58' W 076°41'5 5.8
2018-Jul-18 04:04N 35°02' W 076°38'  
2018-Jul-15 05:12N 34°58' W 076°41'2 7.1
2018-Jul-15 04:59N 34°57' W 076°40'3 6.2
2018-Jul-15 04:27N 34°54' W 076°41'4 7.8
2018-Jul-15 04:00N 34°50' W 076°41'4 7.8
2018-Jul-15 03:30N 34°46' W 076°41'3 6.0
2018-Jul-15 03:00N 34°43' W 076°42'0 0.2
2018-Jul-15 02:30N 34°43' W 076°42'0 0.2
2018-Jul-15 02:00N 34°43' W 076°42'3 5.3
2018-Jul-15 01:30N 34°46' W 076°41'3 5.1
2018-Jul-15 01:00N 34°48' W 076°41'3 5.1
2018-Jul-15 00:30N 34°51' W 076°41'3 5.5
2018-Jul-15 00:00N 34°54' W 076°41'3 5.8
2018-Jul-14 23:30N 34°56' W 076°39'3 6.1
2018-Jul-14 23:00N 34°59' W 076°42'5 6.8
2018-Jul-14 22:12N 35°02' W 076°37'2 6.9
2018-Jul-14 21:58N 35°03' W 076°35'3 0.3
2018-Jul-14 11:30N 35°05' W 076°32'9 7.9
2018-Jul-14 10:24N 35°00' W 076°40'3 5.9
2018-Jul-14 09:54N 34°57' W 076°40'3 6.0
2018-Jul-14 09:29N 34°55' W 076°40'3 5.4
2018-Jul-14 09:00N 34°52' W 076°42'3 5.7
2018-Jul-14 08:30N 34°49' W 076°41'3 5.7
2018-Jul-14 08:00N 34°47' W 076°41'3 5.5
2018-Jul-14 07:30N 34°44' W 076°41'1 1.2
2018-Jul-14 07:00N 34°43' W 076°42'0 0.0
2018-Jul-14 06:31N 34°43' W 076°42'1 1.3
2018-Jul-14 06:00N 34°44' W 076°41'3 6.2
2018-Jul-14 05:30N 34°47' W 076°41'3 5.8
2018-Jul-14 05:01N 34°50' W 076°41'3 5.4
2018-Jul-14 04:30N 34°53' W 076°42'2 4.5
2018-Jul-14 04:00N 34°54' W 076°40'2 5.0
2018-Jul-14 03:30N 34°57' W 076°40'2 4.9
2018-Jul-14 03:00N 34°59' W 076°41'4 0.3
2018-Jul-13 11:39N 34°56' W 076°39'2 7.0
2018-Jul-13 11:23N 34°54' W 076°40'2 5.9
2018-Jul-13 11:00N 34°52' W 076°42'3 6.4
2018-Jul-13 10:30N 34°49' W 076°41'3 6.7
2018-Jul-13 10:00N 34°46' W 076°41'2 5.0
2018-Jul-13 09:30N 34°43' W 076°42'0 0.1
2018-Jul-13 09:01N 34°43' W 076°42'0 0.2
2018-Jul-13 08:30N 34°43' W 076°42'3 5.4
2018-Jul-13 08:00N 34°46' W 076°41'3 6.7
2018-Jul-13 07:30N 34°49' W 076°41'4 7.2
2018-Jul-13 07:01N 34°53' W 076°41'3 6.4
2018-Jul-13 06:30N 34°56' W 076°39'3 6.2
2018-Jul-13 06:00N 34°58' W 076°41'3 6.3
2018-Jul-13 05:30N 35°01' W 076°39'4 7.1
2018-Jul-13 04:54N 35°03' W 076°35'8 0.5
2018-Jul-12 12:41N 34°56' W 076°39'2 7.3
2018-Jul-12 12:25N 34°54' W 076°40'3 7.2
2018-Jul-12 12:00N 34°51' W 076°41'4 8.2
2018-Jul-12 11:30N 34°47' W 076°41'4 7.1
2018-Jul-12 11:00N 34°44' W 076°42'0 0.9
2018-Jul-12 10:30N 34°43' W 076°42'0 0.0
2018-Jul-12 10:00N 34°43' W 076°42'2 4.2
2018-Jul-12 09:31N 34°45' W 076°41'3 5.2
2018-Jul-12 09:00N 34°48' W 076°41'3 6.3
2018-Jul-12 08:30N 34°51' W 076°41'3 6.2
2018-Jul-12 08:00N 34°54' W 076°41'3 5.6
2018-Jul-12 07:30N 34°56' W 076°39'3 5.9
2018-Jul-12 07:00N 34°59' W 076°41'3 6.6
2018-Jul-12 06:30N 35°01' W 076°39'4 6.6
2018-Jul-12 05:57N 35°03' W 076°35'3 6.6
2018-Jul-12 05:30N 35°05' W 076°32'3 6.8
2018-Jul-12 05:00N 35°08' W 076°30'3 5.9
2018-Jul-12 04:28N 35°10' W 076°33'4 5.6
2018-Jul-12 03:44N 35°14' W 076°35'1 4.9
2018-Jul-12 03:30N 35°15' W 076°36'3 5.8
2018-Jul-12 03:00N 35°18' W 076°37'3 5.7
2018-Jul-12 02:30N 35°20' W 076°36'3 5.7
2018-Jul-12 02:00N 35°23' W 076°38'3 6.3
2018-Jul-12 01:30N 35°24' W 076°42'4 5.3
2018-Jul-12 00:49N 35°24' W 076°46'26 4.3
2018-Jul-11 18:50N 34°58' W 076°41'3 6.9
2018-Jul-11 18:25N 34°56' W 076°39'3 6.2
2018-Jul-11 17:59N 34°54' W 076°41'3 5.6
2018-Jul-11 17:30N 34°51' W 076°41'3 5.8
2018-Jul-11 17:00N 34°48' W 076°41'3 5.8
2018-Jul-11 16:30N 34°45' W 076°40'2 4.5
2018-Jul-11 16:00N 34°43' W 076°42'0 0.0
2018-Jul-11 15:30N 34°43' W 076°42'0 0.0
2018-Jul-11 15:00N 34°43' W 076°42'0 0.0
2018-Jul-11 14:30N 34°43' W 076°42'0 0.0
2018-Jul-11 14:00N 34°43' W 076°42'0 0.0
2018-Jul-11 13:30N 34°43' W 076°42'0 0.0
2018-Jul-11 13:00N 34°43' W 076°42'0 0.0
2018-Jul-11 12:30N 34°43' W 076°42'0 0.0
2018-Jul-11 12:00N 34°43' W 076°42'0 0.0
2018-Jul-11 11:30N 34°43' W 076°42'0 0.0
2018-Jul-11 11:00N 34°43' W 076°42'0 0.0
2018-Jul-11 10:30N 34°43' W 076°42'0 0.0
2018-Jul-11 10:00N 34°43' W 076°42'0 0.0
2018-Jul-11 09:30N 34°43' W 076°42'0 0.1
2018-Jul-11 09:00N 34°43' W 076°42'0 0.9
2018-Jul-11 08:30N 34°44' W 076°42'2 4.8
2018-Jul-11 08:00N 34°46' W 076°41'3 6.1
2018-Jul-11 07:30N 34°49' W 076°41'3 6.8
2018-Jul-11 07:00N 34°52' W 076°42'3 6.1
2018-Jul-11 06:30N 34°55' W 076°40'3 5.8
2018-Jul-11 05:57N 34°58' W 076°41'3 5.8
2018-Jul-11 05:22N 35°01' W 076°39'4 6.9
2018-Jul-11 04:44N 35°03' W 076°35'8 0.7
2018-Jul-10 16:38N 34°56' W 076°39'1 6.7
2018-Jul-10 16:30N 34°55' W 076°40'2 5.1
2018-Jul-10 16:00N 34°53' W 076°41'3 5.2
2018-Jul-10 15:30N 34°50' W 076°41'2 4.9
2018-Jul-10 15:00N 34°48' W 076°41'3 5.1
2018-Jul-10 14:31N 34°46' W 076°40'3 5.4
2018-Jul-10 14:00N 34°43' W 076°42'0 0.8
2018-Jul-10 13:30N 34°43' W 076°42'0 0.0
2018-Jul-10 13:00N 34°43' W 076°42'0 0.0
2018-Jul-10 12:30N 34°43' W 076°42'0 0.0
2018-Jul-10 12:00N 34°43' W 076°42'0 0.0
2018-Jul-10 11:30N 34°43' W 076°42'0 0.0
2018-Jul-10 11:00N 34°43' W 076°42'0 0.0
2018-Jul-10 10:30N 34°43' W 076°42'0 0.0
2018-Jul-10 10:00N 34°43' W 076°42'0 0.0
2018-Jul-10 09:30N 34°43' W 076°42'0 0.0
2018-Jul-10 09:00N 34°43' W 076°42'0 0.0
2018-Jul-10 08:30N 34°43' W 076°42'0 0.0
2018-Jul-10 08:00N 34°43' W 076°42'0 0.0
2018-Jul-10 07:30N 34°43' W 076°42'0 0.0
2018-Jul-10 07:00N 34°43' W 076°42'0 0.0
2018-Jul-10 06:30N 34°43' W 076°42'0 0.0
2018-Jul-10 06:00N 34°43' W 076°42'0 0.0
2018-Jul-10 05:30N 34°43' W 076°42'0 0.0
2018-Jul-10 05:00N 34°43' W 076°42'0 0.0
2018-Jul-10 04:30N 34°43' W 076°42'0 0.0
2018-Jul-10 04:00N 34°43' W 076°42'1 1.3
2018-Jul-10 03:30N 34°43' W 076°41'1 1.1
2018-Jul-10 02:59N 34°43' W 076°42'0 0.1
2018-Jul-10 02:30N 34°43' W 076°42'2 4.6
2018-Jul-10 02:00N 34°45' W 076°40'3 5.9
2018-Jul-10 01:29N 34°48' W 076°41'3 5.3
2018-Jul-10 01:00N 34°51' W 076°41'2 4.9
2018-Jul-10 00:30N 34°53' W 076°41'2 4.8
2018-Jul-10 00:00N 34°55' W 076°40'3 5.3
2018-Jul-09 23:30N 34°58' W 076°41'3 5.4
2018-Jul-09 23:00N 35°00' W 076°40'  
Track history (hours):
 
Tides and Currents Weather Stations Pressure Air Temp Water Temp Dewpoint Dewpoint Depression Visibility Wind Speed Wind Dir Waves Ship Positions

Beaufort Belle

Owner: PCS Phosphate, AURORA, NC. More information available from US FCC via Universal Licensing System and Coast Guard Vessel Documentation Center.

Last reported at 2018-Jul-19 16:49 UTC. Time now 2018-Jul-23 15:09 UTC.
Position N 34°56' W 076°39'.

Length 30 m; draft 3.5 m.

Type: Tug. MMSI: 367141430.

Date/timePositionNaut miles runAvg speedWind from/ knotsBaromVisibWave heightAir tempDewpointWater temp
2018-Jul-19 16:49N 34°56' W 076°39'3 6.5
2018-Jul-19 16:24N 34°54' W 076°41'2 6.2
2018-Jul-19 16:00N 34°51' W 076°41'3 6.3
2018-Jul-19 15:30N 34°48' W 076°41'3 6.9
2018-Jul-19 15:00N 34°45' W 076°41'2 3.3
2018-Jul-19 14:30N 34°43' W 076°42'3 2.6
2018-Jul-19 13:30N 34°46' W 076°41'3 6.3
2018-Jul-19 13:01N 34°49' W 076°41'4 7.0
2018-Jul-19 12:30N 34°52' W 076°42'3 6.2
2018-Jul-19 12:00N 34°55' W 076°40'3 5.9
2018-Jul-19 11:30N 34°58' W 076°41'3 5.8
2018-Jul-19 11:00N 35°01' W 076°40'4 7.1
2018-Jul-19 10:30N 35°03' W 076°36'3 6.8
2018-Jul-19 10:01N 35°04' W 076°33'3 6.8
2018-Jul-19 09:30N 35°07' W 076°31'15 0.7
2018-Jul-18 12:00N 34°54' W 076°40'2 4.7
2018-Jul-18 11:29N 34°52' W 076°41'5 5.3
2018-Jul-18 10:30N 34°47' W 076°41'3 5.1
2018-Jul-18 10:00N 34°44' W 076°41'1 2.0
2018-Jul-18 09:30N 34°43' W 076°42'0 0.0
2018-Jul-18 09:00N 34°43' W 076°42'0 0.1
2018-Jul-18 08:30N 34°43' W 076°42'1 1.0
2018-Jul-18 08:01N 34°44' W 076°41'3 5.9
2018-Jul-18 07:31N 34°47' W 076°41'3 5.2
2018-Jul-18 07:00N 34°49' W 076°41'2 4.3
2018-Jul-18 06:30N 34°52' W 076°41'2 4.0
2018-Jul-18 06:01N 34°53' W 076°41'2 3.9
2018-Jul-18 05:30N 34°55' W 076°40'3 4.9
2018-Jul-18 04:53N 34°58' W 076°41'5 5.8
2018-Jul-18 04:04N 35°02' W 076°38'  
2018-Jul-15 05:12N 34°58' W 076°41'2 7.1
2018-Jul-15 04:59N 34°57' W 076°40'3 6.2
2018-Jul-15 04:27N 34°54' W 076°41'4 7.8
2018-Jul-15 04:00N 34°50' W 076°41'4 7.8
2018-Jul-15 03:30N 34°46' W 076°41'3 6.0
2018-Jul-15 03:00N 34°43' W 076°42'0 0.2
2018-Jul-15 02:30N 34°43' W 076°42'0 0.2
2018-Jul-15 02:00N 34°43' W 076°42'3 5.3
2018-Jul-15 01:30N 34°46' W 076°41'3 5.1
2018-Jul-15 01:00N 34°48' W 076°41'3 5.1
2018-Jul-15 00:30N 34°51' W 076°41'3 5.5
2018-Jul-15 00:00N 34°54' W 076°41'3 5.8
2018-Jul-14 23:30N 34°56' W 076°39'3 6.1
2018-Jul-14 23:00N 34°59' W 076°42'5 6.8
2018-Jul-14 22:12N 35°02' W 076°37'2 6.9
2018-Jul-14 21:58N 35°03' W 076°35'3 0.3
2018-Jul-14 11:30N 35°05' W 076°32'9 7.9
2018-Jul-14 10:24N 35°00' W 076°40'3 5.9
2018-Jul-14 09:54N 34°57' W 076°40'3 6.0
2018-Jul-14 09:29N 34°55' W 076°40'3 5.4
2018-Jul-14 09:00N 34°52' W 076°42'3 5.7
2018-Jul-14 08:30N 34°49' W 076°41'3 5.7
2018-Jul-14 08:00N 34°47' W 076°41'3 5.5
2018-Jul-14 07:30N 34°44' W 076°41'1 1.2
2018-Jul-14 07:00N 34°43' W 076°42'0 0.0
2018-Jul-14 06:31N 34°43' W 076°42'1 1.3
2018-Jul-14 06:00N 34°44' W 076°41'3 6.2
2018-Jul-14 05:30N 34°47' W 076°41'3 5.8
2018-Jul-14 05:01N 34°50' W 076°41'3 5.4
2018-Jul-14 04:30N 34°53' W 076°42'2 4.5
2018-Jul-14 04:00N 34°54' W 076°40'2 5.0
2018-Jul-14 03:30N 34°57' W 076°40'2 4.9
2018-Jul-14 03:00N 34°59' W 076°41'4 0.3
2018-Jul-13 11:39N 34°56' W 076°39'2 7.0
2018-Jul-13 11:23N 34°54' W 076°40'2 5.9
2018-Jul-13 11:00N 34°52' W 076°42'3 6.4
2018-Jul-13 10:30N 34°49' W 076°41'3 6.7
2018-Jul-13 10:00N 34°46' W 076°41'2 5.0
2018-Jul-13 09:30N 34°43' W 076°42'0 0.1
2018-Jul-13 09:01N 34°43' W 076°42'0 0.2
2018-Jul-13 08:30N 34°43' W 076°42'3 5.4
2018-Jul-13 08:00N 34°46' W 076°41'3 6.7
2018-Jul-13 07:30N 34°49' W 076°41'4 7.2
2018-Jul-13 07:01N 34°53' W 076°41'3 6.4
2018-Jul-13 06:30N 34°56' W 076°39'3 6.2
2018-Jul-13 06:00N 34°58' W 076°41'3 6.3
2018-Jul-13 05:30N 35°01' W 076°39'4 7.1
2018-Jul-13 04:54N 35°03' W 076°35'8 0.5
2018-Jul-12 12:41N 34°56' W 076°39'2 7.3
2018-Jul-12 12:25N 34°54' W 076°40'3 7.2
2018-Jul-12 12:00N 34°51' W 076°41'4 8.2
2018-Jul-12 11:30N 34°47' W 076°41'4 7.1
2018-Jul-12 11:00N 34°44' W 076°42'0 0.9
2018-Jul-12 10:30N 34°43' W 076°42'0 0.0
2018-Jul-12 10:00N 34°43' W 076°42'2 4.2
2018-Jul-12 09:31N 34°45' W 076°41'3 5.2
2018-Jul-12 09:00N 34°48' W 076°41'3 6.3
2018-Jul-12 08:30N 34°51' W 076°41'3 6.2
2018-Jul-12 08:00N 34°54' W 076°41'3 5.6
2018-Jul-12 07:30N 34°56' W 076°39'3 5.9
2018-Jul-12 07:00N 34°59' W 076°41'3 6.6
2018-Jul-12 06:30N 35°01' W 076°39'4 6.6
2018-Jul-12 05:57N 35°03' W 076°35'3 6.6
2018-Jul-12 05:30N 35°05' W 076°32'3 6.8
2018-Jul-12 05:00N 35°08' W 076°30'3 5.9
2018-Jul-12 04:28N 35°10' W 076°33'4 5.6
2018-Jul-12 03:44N 35°14' W 076°35'1 4.9
2018-Jul-12 03:30N 35°15' W 076°36'3 5.8
2018-Jul-12 03:00N 35°18' W 076°37'3 5.7
2018-Jul-12 02:30N 35°20' W 076°36'3 5.7
2018-Jul-12 02:00N 35°23' W 076°38'3 6.3
2018-Jul-12 01:30N 35°24' W 076°42'4 5.3
2018-Jul-12 00:49N 35°24' W 076°46'26 4.3
2018-Jul-11 18:50N 34°58' W 076°41'3 6.9
2018-Jul-11 18:25N 34°56' W 076°39'3 6.2
2018-Jul-11 17:59N 34°54' W 076°41'3 5.6
2018-Jul-11 17:30N 34°51' W 076°41'3 5.8
2018-Jul-11 17:00N 34°48' W 076°41'3 5.8
2018-Jul-11 16:30N 34°45' W 076°40'2 4.5
2018-Jul-11 16:00N 34°43' W 076°42'0 0.0
2018-Jul-11 15:30N 34°43' W 076°42'0 0.0
2018-Jul-11 15:00N 34°43' W 076°42'0 0.0
2018-Jul-11 14:30N 34°43' W 076°42'0 0.0
2018-Jul-11 14:00N 34°43' W 076°42'0 0.0
2018-Jul-11 13:30N 34°43' W 076°42'0 0.0
2018-Jul-11 13:00N 34°43' W 076°42'0 0.0
2018-Jul-11 12:30N 34°43' W 076°42'0 0.0
2018-Jul-11 12:00N 34°43' W 076°42'0 0.0
2018-Jul-11 11:30N 34°43' W 076°42'0 0.0
2018-Jul-11 11:00N 34°43' W 076°42'0 0.0
2018-Jul-11 10:30N 34°43' W 076°42'0 0.0
2018-Jul-11 10:00N 34°43' W 076°42'0 0.0
2018-Jul-11 09:30N 34°43' W 076°42'0 0.1
2018-Jul-11 09:00N 34°43' W 076°42'0 0.9
2018-Jul-11 08:30N 34°44' W 076°42'2 4.8
2018-Jul-11 08:00N 34°46' W 076°41'3 6.1
2018-Jul-11 07:30N 34°49' W 076°41'3 6.8
2018-Jul-11 07:00N 34°52' W 076°42'3 6.1
2018-Jul-11 06:30N 34°55' W 076°40'3 5.8
2018-Jul-11 05:57N 34°58' W 076°41'3 5.8
2018-Jul-11 05:22N 35°01' W 076°39'4 6.9
2018-Jul-11 04:44N 35°03' W 076°35'8 0.7
2018-Jul-10 16:38N 34°56' W 076°39'1 6.7
2018-Jul-10 16:30N 34°55' W 076°40'2 5.1
2018-Jul-10 16:00N 34°53' W 076°41'3 5.2
2018-Jul-10 15:30N 34°50' W 076°41'2 4.9
2018-Jul-10 15:00N 34°48' W 076°41'3 5.1
2018-Jul-10 14:31N 34°46' W 076°40'3 5.4
2018-Jul-10 14:00N 34°43' W 076°42'0 0.8
2018-Jul-10 13:30N 34°43' W 076°42'0 0.0
2018-Jul-10 13:00N 34°43' W 076°42'0 0.0
2018-Jul-10 12:30N 34°43' W 076°42'0 0.0
2018-Jul-10 12:00N 34°43' W 076°42'0 0.0
2018-Jul-10 11:30N 34°43' W 076°42'0 0.0
2018-Jul-10 11:00N 34°43' W 076°42'0 0.0
2018-Jul-10 10:30N 34°43' W 076°42'0 0.0
2018-Jul-10 10:00N 34°43' W 076°42'0 0.0
2018-Jul-10 09:30N 34°43' W 076°42'0 0.0
2018-Jul-10 09:00N 34°43' W 076°42'0 0.0
2018-Jul-10 08:30N 34°43' W 076°42'0 0.0
2018-Jul-10 08:00N 34°43' W 076°42'0 0.0
2018-Jul-10 07:30N 34°43' W 076°42'0 0.0
2018-Jul-10 07:00N 34°43' W 076°42'0 0.0
2018-Jul-10 06:30N 34°43' W 076°42'0 0.0
2018-Jul-10 06:00N 34°43' W 076°42'0 0.0
2018-Jul-10 05:30N 34°43' W 076°42'0 0.0
2018-Jul-10 05:00N 34°43' W 076°42'0 0.0
2018-Jul-10 04:30N 34°43' W 076°42'0 0.0
2018-Jul-10 04:00N 34°43' W 076°42'1 1.3
2018-Jul-10 03:30N 34°43' W 076°41'1 1.1
2018-Jul-10 02:59N 34°43' W 076°42'0 0.1
2018-Jul-10 02:30N 34°43' W 076°42'2 4.6
2018-Jul-10 02:00N 34°45' W 076°40'3 5.9
2018-Jul-10 01:29N 34°48' W 076°41'3 5.3
2018-Jul-10 01:00N 34°51' W 076°41'2 4.9
2018-Jul-10 00:30N 34°53' W 076°41'2 4.8
2018-Jul-10 00:00N 34°55' W 076°40'3 5.3
2018-Jul-09 23:30N 34°58' W 076°41'3 5.4
2018-Jul-09 23:00N 35°00' W 076°40'  

Dump ship's entire track history